createdAt,value
2018-12-25T00:01:33.646Z,8.55
2018-12-25T00:04:02.531Z,8.00
2018-12-25T00:06:31.359Z,8.25
2018-12-25T00:09:00.243Z,8.35
2018-12-25T00:11:29.661Z,7.92
2018-12-25T00:13:58.861Z,7.25
2018-12-25T00:16:28.061Z,7.00
2018-12-25T00:18:57.024Z,7.20
2018-12-25T00:21:26.143Z,8.33
2018-12-25T00:23:54.955Z,7.67
2018-12-25T00:26:25.981Z,9.35
2018-12-25T00:29:14.262Z,8.93
2018-12-25T00:32:02.611Z,9.95
2018-12-25T00:34:50.873Z,8.45
2018-12-25T00:37:32.345Z,7.12
2018-12-25T00:40:13.487Z,7.15
2018-12-25T00:42:54.876Z,8.18
2018-12-25T00:45:23.782Z,9.45
2018-12-25T00:48:11.762Z,8.50
2018-12-25T00:50:59.846Z,7.95
2018-12-25T00:53:47.979Z,8.05
2018-12-25T00:56:36.380Z,8.45
2018-12-25T00:59:24.422Z,9.23
2018-12-25T01:02:12.879Z,9.18
2018-12-25T01:04:41.856Z,10.90
2018-12-25T01:10:44.844Z,9.38
2018-12-25T01:13:34.351Z,7.55
2018-12-25T01:16:04.602Z,8.90
2018-12-25T01:18:33.514Z,9.13
2018-12-25T01:21:02.895Z,8.63
2018-12-25T01:23:35.509Z,8.18
2018-12-25T01:26:07.712Z,8.25
2018-12-25T01:28:37.832Z,8.10
2018-12-25T01:31:06.849Z,9.65
2018-12-25T01:33:36.169Z,8.40
2018-12-25T01:36:05.432Z,7.95
2018-12-25T01:38:34.637Z,8.30
2018-12-25T01:41:03.737Z,8.25
2018-12-25T01:43:32.791Z,8.63
2018-12-25T01:46:01.925Z,7.85
2018-12-25T01:48:33.102Z,7.33
2018-12-25T01:51:02.345Z,7.87
2018-12-25T01:53:31.663Z,7.90
2018-12-25T01:56:00.884Z,7.53
2018-12-25T01:58:31.284Z,7.80
2018-12-25T02:01:00.391Z,9.93
2018-12-25T02:03:31.501Z,13.90
2018-12-25T02:06:00.953Z,14.43
2018-12-25T02:08:30.724Z,9.23
2018-12-25T02:11:02.001Z,9.38
2018-12-25T02:13:31.550Z,10.10
2018-12-25T02:16:01.740Z,10.00
2018-12-25T02:18:30.993Z,9.10
2018-12-25T02:21:01.169Z,10.03
2018-12-25T02:23:30.756Z,9.10
2018-12-25T02:26:18.926Z,9.68
2018-12-25T02:29:22.190Z,9.85
2018-12-25T02:31:54.300Z,9.80
2018-12-25T02:34:23.243Z,10.80
2018-12-25T02:36:52.287Z,11.30
2018-12-25T02:39:21.451Z,9.65
2018-12-25T02:42:09.767Z,9.80
2018-12-25T02:44:40.223Z,10.82
2018-12-25T02:47:28.275Z,10.40
2018-12-25T02:49:57.511Z,8.43
2018-12-25T02:52:26.627Z,8.90
2018-12-25T02:55:15.222Z,10.15
2018-12-25T02:58:03.585Z,8.70
2018-12-25T03:00:52.053Z,8.50
2018-12-25T03:03:40.239Z,10.18
2018-12-25T03:06:28.271Z,9.30
2018-12-25T03:09:16.708Z,9.33
2018-12-25T03:12:05.249Z,9.00
2018-12-25T03:14:53.242Z,9.05
2018-12-25T03:17:41.932Z,9.35
2018-12-25T03:20:30.001Z,8.08
2018-12-25T03:23:10.333Z,8.58
2018-12-25T03:25:50.764Z,8.83
2018-12-25T03:28:20.475Z,8.35
2018-12-25T03:31:08.424Z,8.23
2018-12-25T03:33:37.528Z,8.93
2018-12-25T03:36:25.746Z,8.85
2018-12-25T03:39:13.870Z,8.85
2018-12-25T03:41:43.074Z,9.40
2018-12-25T03:44:12.406Z,9.80
2018-12-25T03:46:49.101Z,8.20
2018-12-25T03:49:26.790Z,9.33
2018-12-25T03:52:00.114Z,9.45
2018-12-25T03:54:41.575Z,8.65
2018-12-25T03:57:10.768Z,8.15
2018-12-25T04:02:32.447Z,7.42
2018-12-25T04:05:03.146Z,9.55
2018-12-25T04:07:32.208Z,9.78
2018-12-25T04:10:01.252Z,8.53
2018-12-25T04:12:31.050Z,9.63
2018-12-25T04:15:00.605Z,7.92
2018-12-25T04:17:30.566Z,8.20
2018-12-25T04:19:59.690Z,8.68
2018-12-25T04:22:28.724Z,9.40
2018-12-25T04:24:57.801Z,9.75
2018-12-25T04:27:26.773Z,7.72
2018-12-25T04:29:55.904Z,8.55
2018-12-25T04:32:25.004Z,11.15
2018-12-25T04:34:54.175Z,9.75
2018-12-25T04:37:23.233Z,9.18
2018-12-25T04:39:52.895Z,9.30
2018-12-25T04:42:21.752Z,8.13
2018-12-25T04:44:50.890Z,8.90
2018-12-25T04:47:20.204Z,7.67
2018-12-25T04:49:51.229Z,9.28
2018-12-25T04:52:20.253Z,8.20
2018-12-25T04:54:49.362Z,9.10
2018-12-25T04:57:18.585Z,8.38
2018-12-25T04:59:47.666Z,8.80
2018-12-25T05:02:16.652Z,8.40
2018-12-25T05:04:46.225Z,9.18
2018-12-25T05:07:15.358Z,7.92
2018-12-25T05:09:44.228Z,8.30
2018-12-25T05:12:13.532Z,8.03
2018-12-25T05:14:43.001Z,9.30
2018-12-25T05:17:12.123Z,8.83
2018-12-25T05:19:41.184Z,9.05
2018-12-25T05:22:10.686Z,9.35
2018-12-25T05:24:39.876Z,9.05
2018-12-25T05:27:09.018Z,8.85
2018-12-25T05:29:38.072Z,9.68
2018-12-25T05:32:07.896Z,9.28
2018-12-25T05:34:36.930Z,10.05
2018-12-25T05:37:06.327Z,9.10
2018-12-25T05:39:35.839Z,7.30
2018-12-25T05:42:05.008Z,7.90
2018-12-25T05:44:33.976Z,5.85
2018-12-25T05:47:03.110Z,7.72
2018-12-25T05:49:32.205Z,9.75
2018-12-25T05:52:01.532Z,9.93
2018-12-25T05:54:30.656Z,7.83
2018-12-25T05:56:59.440Z,6.12
2018-12-25T05:59:28.764Z,5.60
2018-12-25T06:01:57.822Z,8.90
2018-12-25T06:04:27.072Z,6.70
2018-12-25T06:06:56.662Z,9.68
2018-12-25T06:09:25.804Z,9.30
2018-12-25T06:11:54.599Z,10.50
2018-12-25T06:14:23.861Z,9.28
2018-12-25T06:16:52.877Z,8.13
2018-12-25T06:19:21.700Z,9.00
2018-12-25T06:21:50.847Z,9.48
2018-12-25T06:24:19.951Z,8.73
2018-12-25T06:26:48.952Z,7.62
2018-12-25T06:29:17.714Z,9.25
2018-12-25T06:31:47.332Z,8.85
2018-12-25T06:34:16.138Z,7.60
2018-12-25T06:36:45.695Z,9.88
2018-12-25T06:39:14.939Z,7.28
2018-12-25T06:41:44.148Z,9.03
2018-12-25T06:44:13.341Z,8.80
2018-12-25T06:46:42.510Z,8.95
2018-12-25T06:49:11.416Z,8.58
2018-12-25T06:51:40.559Z,9.93
2018-12-25T06:54:09.705Z,9.25
2018-12-25T06:56:39.191Z,10.18
2018-12-25T06:59:08.142Z,9.15
2018-12-25T07:01:37.144Z,8.83
2018-12-25T07:04:05.901Z,7.83
2018-12-25T07:06:34.877Z,7.30
2018-12-25T07:09:05.329Z,8.30
2018-12-25T07:11:34.613Z,5.80
2018-12-25T07:14:03.674Z,4.45
2018-12-25T07:16:32.452Z,5.97
2018-12-25T07:19:01.797Z,7.30
2018-12-25T07:21:30.897Z,6.47
2018-12-25T07:24:00.037Z,6.62
2018-12-25T07:26:29.407Z,7.92
2018-12-25T07:28:58.957Z,7.78
2018-12-25T07:31:27.839Z,8.23
2018-12-25T07:33:56.968Z,8.23
2018-12-25T07:36:26.694Z,9.03
2018-12-25T07:38:56.031Z,8.65
2018-12-25T07:41:25.196Z,7.10
2018-12-25T07:43:54.265Z,8.85
2018-12-25T07:46:23.332Z,7.45
2018-12-25T07:48:52.831Z,8.98
2018-12-25T07:51:21.847Z,10.00
2018-12-25T07:53:51.092Z,10.25
2018-12-25T07:56:20.105Z,8.00
2018-12-25T07:58:49.269Z,9.30
2018-12-25T08:01:18.647Z,9.28
2018-12-25T08:03:47.798Z,9.48
2018-12-25T08:06:16.935Z,10.80
2018-12-25T08:08:46.171Z,9.58
2018-12-25T08:11:15.277Z,9.78
2018-12-25T08:13:44.412Z,9.75
2018-12-25T08:16:13.874Z,11.35
2018-12-25T08:18:44.029Z,10.15
2018-12-25T08:21:14.211Z,9.80
2018-12-25T08:23:43.298Z,8.53
2018-12-25T08:26:12.783Z,8.80
2018-12-25T08:28:41.832Z,9.48
2018-12-25T08:31:11.039Z,9.05
2018-12-25T08:33:40.176Z,8.80
2018-12-25T08:36:09.112Z,10.18
2018-12-25T08:38:38.317Z,8.53
2018-12-25T08:41:07.734Z,10.38
2018-12-25T08:43:36.586Z,9.80
2018-12-25T08:46:05.769Z,10.75
2018-12-25T08:48:34.724Z,10.35
2018-12-25T08:51:03.833Z,9.58
2018-12-25T08:53:32.632Z,8.83
2018-12-25T08:56:02.223Z,9.78
2018-12-25T08:58:31.122Z,9.88
2018-12-25T09:01:00.271Z,7.58
2018-12-25T09:03:29.092Z,9.23
2018-12-25T09:05:58.202Z,9.28
2018-12-25T09:08:34.801Z,8.78
2018-12-25T09:10:58.339Z,8.18
2018-12-25T09:13:27.363Z,8.85
2018-12-25T09:15:56.730Z,8.98
2018-12-25T09:18:26.272Z,9.13
2018-12-25T09:20:55.281Z,9.33
2018-12-25T09:23:24.532Z,9.40
2018-12-25T09:25:54.062Z,9.68
2018-12-25T09:28:23.142Z,8.95
2018-12-25T09:30:52.501Z,8.83
2018-12-25T09:33:21.850Z,9.08
2018-12-25T09:35:50.927Z,8.50
2018-12-25T09:38:20.370Z,8.95
2018-12-25T09:40:49.591Z,7.90
2018-12-25T09:43:18.684Z,8.15
2018-12-25T09:45:47.723Z,12.00
2018-12-25T09:48:16.833Z,6.42
2018-12-25T09:50:46.156Z,7.08
2018-12-25T09:53:15.191Z,5.47
2018-12-25T09:55:44.441Z,4.50
2018-12-25T09:58:13.278Z,7.45
2018-12-25T10:00:42.148Z,7.17
2018-12-25T10:03:11.143Z,6.87
2018-12-25T10:05:39.951Z,7.00
2018-12-25T10:08:09.383Z,7.90
2018-12-25T10:10:38.590Z,6.60
2018-12-25T10:13:07.625Z,5.72
2018-12-25T10:15:36.695Z,7.03
2018-12-25T10:18:06.150Z,7.97
2018-12-25T10:20:35.423Z,7.42
2018-12-25T10:23:04.346Z,8.60
2018-12-25T10:25:33.865Z,7.00
2018-12-25T10:28:02.819Z,7.95
2018-12-25T10:30:32.100Z,7.30
2018-12-25T10:33:01.213Z,7.65
2018-12-25T10:35:30.290Z,7.92
2018-12-25T10:37:59.713Z,7.67
2018-12-25T10:40:29.520Z,7.42
2018-12-25T10:42:58.859Z,6.47
2018-12-25T10:45:28.205Z,7.25
2018-12-25T10:47:57.401Z,7.50
2018-12-25T10:50:26.964Z,7.03
2018-12-25T10:52:56.221Z,7.40
2018-12-25T10:55:25.168Z,6.37
2018-12-25T10:57:54.838Z,7.00
2018-12-25T11:00:23.906Z,6.10
2018-12-25T11:03:09.541Z,7.60
2018-12-25T11:05:38.525Z,7.70
2018-12-25T11:08:07.711Z,10.08
2018-12-25T11:10:36.487Z,8.50
2018-12-25T11:13:19.667Z,7.35
2018-12-25T11:15:48.746Z,8.00
2018-12-25T11:18:18.056Z,8.30
2018-12-25T11:20:50.370Z,7.47
2018-12-25T11:23:19.535Z,8.93
2018-12-25T11:26:06.149Z,8.95
2018-12-25T11:28:35.637Z,9.03
2018-12-25T11:31:04.687Z,7.55
2018-12-25T11:33:33.724Z,18.37
2018-12-25T11:36:02.880Z,10.65
2018-12-25T11:38:32.074Z,10.60
2018-12-25T11:41:01.308Z,24.25
2018-12-25T11:43:30.417Z,13.20
2018-12-25T11:45:59.389Z,8.43
2018-12-25T11:48:29.001Z,8.70
2018-12-25T11:50:58.148Z,7.50
2018-12-25T11:53:27.157Z,7.40
2018-12-25T11:55:57.571Z,8.05
2018-12-25T11:58:26.923Z,7.20
2018-12-25T12:00:56.107Z,8.90
2018-12-25T12:03:25.109Z,8.20
2018-12-25T12:05:54.386Z,8.28
2018-12-25T12:08:27.568Z,8.38
2018-12-25T12:11:04.415Z,9.05
2018-12-25T12:13:33.658Z,9.20
2018-12-25T12:16:02.821Z,8.10
2018-12-25T12:18:32.298Z,8.70
2018-12-25T12:21:01.396Z,8.05
2018-12-25T12:23:30.633Z,8.08
2018-12-25T12:26:00.049Z,8.10
2018-12-25T12:28:29.280Z,9.05
2018-12-25T12:30:58.208Z,8.15
2018-12-25T12:33:27.302Z,8.48
2018-12-25T12:35:56.928Z,8.53
2018-12-25T12:38:25.777Z,8.25
2018-12-25T12:40:54.824Z,7.97
2018-12-25T12:43:23.960Z,9.45
2018-12-25T12:45:52.772Z,9.40
2018-12-25T12:48:21.855Z,8.33
2018-12-25T12:50:50.595Z,7.53
2018-12-25T12:53:21.073Z,7.75
2018-12-25T12:55:50.224Z,8.00
2018-12-25T12:58:19.295Z,8.20
2018-12-25T13:00:48.444Z,8.40
2018-12-25T13:03:17.495Z,7.08
2018-12-25T13:05:46.724Z,8.58
2018-12-25T13:08:16.102Z,8.13
2018-12-25T13:10:45.448Z,8.35
2018-12-25T13:13:14.478Z,8.18
2018-12-25T13:15:43.383Z,9.18
2018-12-25T13:18:12.544Z,9.10
2018-12-25T13:20:41.485Z,10.18
2018-12-25T13:23:10.990Z,10.80
2018-12-25T13:25:40.171Z,10.08
2018-12-25T13:28:09.428Z,10.28
2018-12-25T13:30:38.774Z,10.75
2018-12-25T13:33:07.759Z,10.03
2018-12-25T13:35:37.194Z,10.08
2018-12-25T13:38:06.618Z,10.55
2018-12-25T13:40:35.979Z,10.68
2018-12-25T13:43:06.420Z,10.95
2018-12-25T13:45:35.792Z,10.45
2018-12-25T13:48:04.715Z,10.48
2018-12-25T13:50:33.728Z,11.53
2018-12-25T13:53:03.546Z,12.07
2018-12-25T13:55:32.936Z,12.10
2018-12-25T13:58:01.839Z,12.00
2018-12-25T14:00:30.780Z,13.08
2018-12-25T14:03:00.011Z,11.85
2018-12-25T14:05:29.202Z,12.00
2018-12-25T14:07:58.232Z,12.25
2018-12-25T14:10:27.513Z,11.20
2018-12-25T14:12:56.922Z,9.95
2018-12-25T14:15:29.956Z,13.30
2018-12-25T14:17:59.534Z,13.28
2018-12-25T14:20:28.505Z,11.40
2018-12-25T14:22:58.233Z,12.68
2018-12-25T14:25:27.238Z,12.15
2018-12-25T14:27:56.895Z,12.05
2018-12-25T14:30:25.825Z,11.57
2018-12-25T14:32:55.120Z,13.35
2018-12-25T14:35:24.133Z,12.63
2018-12-25T14:37:53.034Z,12.82
2018-12-25T14:40:21.784Z,12.20
2018-12-25T14:42:50.880Z,12.43
2018-12-25T14:45:19.753Z,10.50
2018-12-25T14:47:48.931Z,11.48
2018-12-25T14:50:18.127Z,10.60
2018-12-25T14:52:47.370Z,10.80
2018-12-25T14:55:16.536Z,10.58
2018-12-25T14:57:45.945Z,11.50
2018-12-25T15:00:15.171Z,11.43
2018-12-25T15:02:45.793Z,11.80
2018-12-25T15:05:14.833Z,10.58
2018-12-25T15:07:43.670Z,10.80
2018-12-25T15:10:12.863Z,9.43
2018-12-25T15:12:41.691Z,11.57
2018-12-25T15:15:10.702Z,11.35
2018-12-25T15:17:39.993Z,10.65
2018-12-25T15:20:09.135Z,10.93
2018-12-25T15:22:40.559Z,12.13
2018-12-25T15:25:09.129Z,12.40
2018-12-25T15:27:38.263Z,12.50
2018-12-25T15:30:08.040Z,11.00
2018-12-25T15:32:36.864Z,11.28
2018-12-25T15:35:09.534Z,13.08
2018-12-25T15:37:38.586Z,12.37
2018-12-25T15:40:08.663Z,11.50
2018-12-25T15:42:37.668Z,12.60
2018-12-25T15:45:08.420Z,13.25
2018-12-25T15:47:37.913Z,12.78
2018-12-25T15:50:07.752Z,12.10
2018-12-25T15:52:36.930Z,12.03
2018-12-25T15:55:07.458Z,10.70
2018-12-25T15:57:36.639Z,10.95
2018-12-25T16:00:09.575Z,11.40
2018-12-25T16:02:38.634Z,13.28
2018-12-25T16:05:07.825Z,12.05
2018-12-25T16:07:37.107Z,13.05
2018-12-25T16:10:06.150Z,12.50
2018-12-25T16:12:35.348Z,13.03
2018-12-25T16:15:04.299Z,13.03
2018-12-25T16:17:33.086Z,12.28
2018-12-25T16:20:02.395Z,11.30
2018-12-25T16:22:31.577Z,13.50
2018-12-25T16:25:01.831Z,12.35
2018-12-25T16:27:33.398Z,12.95
2018-12-25T16:30:04.411Z,12.33
2018-12-25T16:32:33.597Z,10.65
2018-12-25T16:35:04.065Z,12.33
2018-12-25T16:37:35.117Z,11.33
2018-12-25T16:40:06.576Z,9.73
2018-12-25T16:42:35.911Z,10.53
2018-12-25T16:45:04.951Z,11.95
2018-12-25T16:47:33.914Z,10.80
2018-12-25T16:50:03.032Z,10.45
2018-12-25T16:52:32.188Z,11.25
2018-12-25T16:55:01.190Z,9.13
2018-12-25T16:57:30.957Z,12.10
2018-12-25T16:59:59.686Z,10.85
2018-12-25T17:02:28.865Z,10.43
2018-12-25T17:04:57.714Z,11.10
2018-12-25T17:07:26.565Z,9.68
2018-12-25T17:09:55.587Z,8.93
2018-12-25T17:12:24.731Z,9.48
2018-12-25T17:14:53.994Z,10.15
2018-12-25T17:17:22.974Z,8.90
2018-12-25T17:19:52.091Z,10.08
2018-12-25T17:22:21.607Z,11.10
2018-12-25T17:24:50.834Z,9.23
2018-12-25T17:27:19.741Z,9.43
2018-12-25T17:29:48.881Z,9.85
2018-12-25T17:32:18.272Z,9.15
2018-12-25T17:34:47.061Z,8.45
2018-12-25T17:37:16.638Z,9.00
2018-12-25T17:39:45.981Z,10.03
2018-12-25T17:42:14.823Z,8.00
2018-12-25T17:44:44.484Z,8.88
2018-12-25T17:47:13.566Z,8.48
2018-12-25T17:49:45.134Z,8.20
2018-12-25T17:52:14.715Z,9.95
2018-12-25T17:54:43.569Z,8.88
2018-12-25T17:57:13.104Z,9.30
2018-12-25T17:59:42.146Z,8.43
2018-12-25T18:02:11.095Z,9.53
2018-12-25T18:04:40.256Z,10.60
2018-12-25T18:07:09.188Z,9.53
2018-12-25T18:09:38.384Z,9.55
2018-12-25T18:12:07.532Z,9.80
2018-12-25T18:14:36.724Z,10.25
2018-12-25T18:17:05.983Z,10.88
2018-12-25T18:19:35.129Z,10.13
2018-12-25T18:22:04.274Z,10.60
2018-12-25T18:24:33.652Z,8.00
2018-12-25T18:27:03.172Z,9.13
2018-12-25T18:29:32.030Z,9.75
2018-12-25T18:32:01.843Z,7.15
2018-12-25T18:34:31.025Z,8.75
2018-12-25T18:37:00.319Z,8.55
2018-12-25T18:39:29.581Z,8.63
2018-12-25T18:41:58.823Z,8.63
2018-12-25T18:44:27.907Z,9.05
2018-12-25T18:46:57.050Z,12.93
2018-12-25T18:49:26.291Z,8.15
2018-12-25T18:51:55.275Z,9.48
2018-12-25T18:54:27.894Z,12.28
2018-12-25T18:56:55.351Z,10.50
2018-12-25T18:59:24.421Z,10.40
2018-12-25T19:01:53.814Z,10.50
2018-12-25T19:04:22.870Z,9.80
2018-12-25T19:06:51.757Z,11.15
2018-12-25T19:09:20.847Z,10.48
2018-12-25T19:11:50.872Z,8.00
2018-12-25T19:14:20.070Z,9.50
2018-12-25T19:16:51.557Z,7.62
2018-12-25T19:19:20.626Z,9.95
2018-12-25T19:21:49.409Z,9.30
2018-12-25T19:24:18.941Z,9.50
2018-12-25T19:26:48.519Z,12.33
2018-12-25T19:29:17.976Z,11.88
2018-12-25T19:31:47.216Z,10.40
2018-12-25T19:34:16.006Z,11.70
2018-12-25T19:36:45.129Z,11.83
2018-12-25T19:39:15.849Z,10.48
2018-12-25T19:41:44.667Z,12.43
2018-12-25T19:44:13.963Z,15.30
2018-12-25T19:46:42.955Z,13.72
2018-12-25T19:49:12.377Z,11.70
2018-12-25T19:51:41.398Z,11.20
2018-12-25T19:54:10.596Z,11.75
2018-12-25T19:56:39.644Z,10.88
2018-12-25T19:59:08.767Z,12.28
2018-12-25T20:01:37.799Z,11.93
2018-12-25T20:05:03.243Z,11.65
2018-12-25T20:08:24.152Z,11.93
2018-12-25T20:11:29.465Z,12.00
2018-12-25T20:14:39.779Z,12.58
2018-12-25T20:17:50.743Z,11.53
2018-12-25T20:20:55.384Z,12.28
2018-12-25T20:23:55.104Z,10.93
2018-12-25T20:27:08.654Z,10.80
2018-12-25T20:30:14.852Z,10.28
2018-12-25T20:33:23.542Z,11.25
2018-12-25T20:36:34.266Z,10.85
2018-12-25T20:39:55.718Z,10.68
2018-12-25T20:43:20.984Z,9.95
2018-12-25T20:46:42.964Z,11.18
2018-12-25T20:50:04.159Z,10.85
2018-12-25T20:53:20.548Z,11.70
2018-12-25T20:56:38.405Z,10.60
2018-12-25T20:59:43.559Z,10.70
2018-12-25T21:02:48.701Z,10.03
2018-12-25T21:05:54.504Z,10.28
2018-12-25T21:09:02.482Z,8.53
2018-12-25T21:11:56.873Z,9.15
2018-12-25T21:14:47.987Z,7.85
2018-12-25T21:17:47.664Z,10.93
2018-12-25T21:20:43.907Z,8.20
2018-12-25T21:23:48.770Z,8.93
2018-12-25T21:26:53.874Z,10.85
2018-12-25T21:29:23.106Z,12.50
2018-12-25T21:31:52.418Z,10.43
2018-12-25T21:34:21.458Z,12.05
2018-12-25T21:36:50.992Z,12.50
2018-12-25T21:39:21.042Z,12.88
2018-12-25T21:41:50.468Z,14.35
2018-12-25T21:44:19.562Z,14.47
2018-12-25T21:46:48.964Z,14.25
2018-12-25T21:49:18.131Z,14.35
2018-12-25T21:51:49.392Z,13.95
2018-12-25T21:54:18.397Z,17.25
2018-12-25T21:56:47.827Z,14.28
2018-12-25T21:59:18.403Z,16.27
2018-12-25T22:01:47.397Z,17.92
2018-12-25T22:04:16.881Z,20.75
2018-12-25T22:06:45.995Z,19.25
2018-12-25T22:09:15.269Z,21.10
2018-12-25T22:11:45.395Z,21.77
2018-12-25T22:14:14.696Z,22.37
2018-12-25T22:16:45.098Z,20.50
2018-12-25T22:19:14.161Z,21.00
2018-12-25T22:21:44.294Z,18.60
2018-12-25T22:24:13.561Z,18.42
2018-12-25T22:26:42.975Z,16.30
2018-12-25T22:29:14.592Z,16.10
2018-12-25T22:31:46.087Z,16.60
2018-12-25T22:34:15.626Z,17.35
2018-12-25T22:36:44.609Z,18.20
2018-12-25T22:39:13.416Z,18.15
2018-12-25T22:41:42.370Z,18.98
2018-12-25T22:44:11.334Z,17.32
2018-12-25T22:46:40.448Z,17.95
2018-12-25T22:49:10.831Z,17.85
2018-12-25T22:51:40.704Z,15.70
2018-12-25T22:54:11.787Z,15.28
2018-12-25T22:56:42.074Z,17.30
2018-12-25T22:59:11.925Z,17.90
2018-12-25T23:01:44.337Z,16.07
2018-12-25T23:04:13.872Z,12.53
2018-12-25T23:06:43.340Z,13.03
2018-12-25T23:09:12.464Z,15.15
2018-12-25T23:11:43.743Z,15.30
2018-12-25T23:14:12.667Z,12.65
2018-12-25T23:16:42.382Z,12.45
2018-12-25T23:19:11.475Z,16.17
2018-12-25T23:21:40.882Z,14.47
2018-12-25T23:26:57.736Z,13.98
2018-12-25T23:29:27.861Z,14.73
2018-12-25T23:32:02.249Z,15.13
2018-12-25T23:34:33.607Z,15.13
2018-12-25T23:37:03.178Z,15.25
2018-12-25T23:39:33.745Z,16.90
2018-12-25T23:42:02.914Z,15.35
2018-12-25T23:47:22.383Z,15.83
2018-12-25T23:49:51.543Z,15.75
2018-12-25T23:52:21.169Z,15.03
2018-12-25T23:54:50.238Z,15.93
2018-12-25T23:57:19.169Z,15.98
2018-12-25T23:59:50.848Z,15.72
